sensor_id;sensor_type;location;lat;lon;timestamp;P1;durP1;ratioP1;P2;durP2;ratioP2
14358;SDS011;7263;49.418;11.064;2023-03-03T00:00:04;18.67;;;14.73;;
14358;SDS011;7263;49.418;11.064;2023-03-03T00:02:32;17.97;;;14.63;;
14358;SDS011;7263;49.418;11.064;2023-03-03T00:04:59;17.53;;;14.80;;
14358;SDS011;7263;49.418;11.064;2023-03-03T00:07:25;18.73;;;15.80;;
14358;SDS011;7263;49.418;11.064;2023-03-03T00:09:53;16.73;;;14.93;;
14358;SDS011;7263;49.418;11.064;2023-03-03T00:12:22;18.57;;;14.87;;
14358;SDS011;7263;49.418;11.064;2023-03-03T00:14:50;18.17;;;14.37;;
14358;SDS011;7263;49.418;11.064;2023-03-03T00:17:20;18.73;;;15.00;;
14358;SDS011;7263;49.418;11.064;2023-03-03T00:19:48;16.90;;;14.57;;
14358;SDS011;7263;49.418;11.064;2023-03-03T00:22:21;18.20;;;15.33;;
14358;SDS011;7263;49.418;11.064;2023-03-03T00:24:56;18.17;;;15.80;;
14358;SDS011;7263;49.418;11.064;2023-03-03T00:27:26;15.87;;;14.17;;
14358;SDS011;7263;49.418;11.064;2023-03-03T00:29:56;16.17;;;14.43;;
14358;SDS011;7263;49.418;11.064;2023-03-03T00:32:24;19.93;;;15.10;;
14358;SDS011;7263;49.418;11.064;2023-03-03T00:34:53;17.87;;;14.40;;
14358;SDS011;7263;49.418;11.064;2023-03-03T00:37:29;17.73;;;14.50;;
14358;SDS011;7263;49.418;11.064;2023-03-03T00:42:48;17.10;;;14.20;;
14358;SDS011;7263;49.418;11.064;2023-03-03T00:45:21;16.40;;;14.60;;
14358;SDS011;7263;49.418;11.064;2023-03-03T00:47:52;16.90;;;14.90;;
14358;SDS011;7263;49.418;11.064;2023-03-03T00:50:27;18.20;;;15.13;;
14358;SDS011;7263;49.418;11.064;2023-03-03T00:53:00;17.43;;;15.60;;
14358;SDS011;7263;49.418;11.064;2023-03-03T00:55:33;17.53;;;15.47;;
14358;SDS011;7263;49.418;11.064;2023-03-03T00:58:01;18.10;;;15.73;;
14358;SDS011;7263;49.418;11.064;2023-03-03T01:00:27;19.77;;;15.57;;
14358;SDS011;7263;49.418;11.064;2023-03-03T01:02:54;15.73;;;13.30;;
14358;SDS011;7263;49.418;11.064;2023-03-03T01:05:21;17.97;;;14.67;;
14358;SDS011;7263;49.418;11.064;2023-03-03T01:07:48;17.63;;;15.00;;
14358;SDS011;7263;49.418;11.064;2023-03-03T01:10:15;17.63;;;14.20;;
14358;SDS011;7263;49.418;11.064;2023-03-03T01:12:44;19.27;;;13.80;;
14358;SDS011;7263;49.418;11.064;2023-03-03T01:15:11;17.30;;;14.33;;
14358;SDS011;7263;49.418;11.064;2023-03-03T01:17:40;17.93;;;14.50;;
14358;SDS011;7263;49.418;11.064;2023-03-03T01:20:08;16.03;;;14.33;;
14358;SDS011;7263;49.418;11.064;2023-03-03T01:22:36;16.63;;;14.73;;
14358;SDS011;7263;49.418;11.064;2023-03-03T01:25:03;16.07;;;13.93;;
14358;SDS011;7263;49.418;11.064;2023-03-03T01:27:31;15.77;;;14.07;;
14358;SDS011;7263;49.418;11.064;2023-03-03T01:30:00;17.67;;;14.07;;
14358;SDS011;7263;49.418;11.064;2023-03-03T01:32:27;16.53;;;14.00;;
14358;SDS011;7263;49.418;11.064;2023-03-03T01:34:54;17.50;;;14.47;;
14358;SDS011;7263;49.418;11.064;2023-03-03T01:37:21;16.50;;;14.47;;
14358;SDS011;7263;49.418;11.064;2023-03-03T01:39:48;15.70;;;14.00;;
14358;SDS011;7263;49.418;11.064;2023-03-03T01:42:18;16.63;;;13.73;;
14358;SDS011;7263;49.418;11.064;2023-03-03T01:44:45;17.97;;;14.57;;
14358;SDS011;7263;49.418;11.064;2023-03-03T01:47:14;18.43;;;14.70;;
14358;SDS011;7263;49.418;11.064;2023-03-03T01:49:43;16.67;;;14.87;;
14358;SDS011;7263;49.418;11.064;2023-03-03T01:52:16;18.10;;;14.60;;
14358;SDS011;7263;49.418;11.064;2023-03-03T01:54:48;17.10;;;13.47;;
14358;SDS011;7263;49.418;11.064;2023-03-03T01:57:19;16.13;;;13.57;;
14358;SDS011;7263;49.418;11.064;2023-03-03T01:59:50;14.33;;;12.83;;
14358;SDS011;7263;49.418;11.064;2023-03-03T02:02:19;16.60;;;13.57;;
14358;SDS011;7263;49.418;11.064;2023-03-03T02:04:48;16.53;;;13.93;;
14358;SDS011;7263;49.418;11.064;2023-03-03T02:07:15;15.20;;;13.60;;
14358;SDS011;7263;49.418;11.064;2023-03-03T02:09:46;15.17;;;13.57;;
14358;SDS011;7263;49.418;11.064;2023-03-03T02:12:18;14.83;;;12.70;;
14358;SDS011;7263;49.418;11.064;2023-03-03T02:14:48;16.60;;;13.83;;
14358;SDS011;7263;49.418;11.064;2023-03-03T02:17:15;16.83;;;13.43;;
14358;SDS011;7263;49.418;11.064;2023-03-03T02:19:45;17.60;;;13.87;;
14358;SDS011;7263;49.418;11.064;2023-03-03T02:22:20;15.97;;;12.43;;
14358;SDS011;7263;49.418;11.064;2023-03-03T02:24:52;15.60;;;13.53;;
14358;SDS011;7263;49.418;11.064;2023-03-03T02:27:26;17.63;;;13.73;;
14358;SDS011;7263;49.418;11.064;2023-03-03T02:29:55;15.23;;;12.80;;
14358;SDS011;7263;49.418;11.064;2023-03-03T02:32:22;17.13;;;13.53;;
14358;SDS011;7263;49.418;11.064;2023-03-03T02:34:49;15.03;;;13.00;;
14358;SDS011;7263;49.418;11.064;2023-03-03T02:37:18;14.20;;;12.53;;
14358;SDS011;7263;49.418;11.064;2023-03-03T02:39:45;16.30;;;13.30;;
14358;SDS011;7263;49.418;11.064;2023-03-03T02:42:14;18.03;;;13.93;;
14358;SDS011;7263;49.418;11.064;2023-03-03T02:44:46;15.80;;;12.67;;
14358;SDS011;7263;49.418;11.064;2023-03-03T02:47:13;15.33;;;12.50;;
14358;SDS011;7263;49.418;11.064;2023-03-03T02:49:40;16.20;;;12.50;;
14358;SDS011;7263;49.418;11.064;2023-03-03T02:52:08;14.23;;;12.17;;
14358;SDS011;7263;49.418;11.064;2023-03-03T02:54:35;14.77;;;12.37;;
14358;SDS011;7263;49.418;11.064;2023-03-03T02:57:03;17.43;;;11.73;;
14358;SDS011;7263;49.418;11.064;2023-03-03T02:59:31;14.13;;;12.07;;
14358;SDS011;7263;49.418;11.064;2023-03-03T03:01:59;14.60;;;12.43;;
14358;SDS011;7263;49.418;11.064;2023-03-03T03:04:26;15.17;;;12.60;;
14358;SDS011;7263;49.418;11.064;2023-03-03T03:06:53;14.43;;;12.27;;
14358;SDS011;7263;49.418;11.064;2023-03-03T03:09:21;14.90;;;12.60;;
14358;SDS011;7263;49.418;11.064;2023-03-03T03:11:49;14.63;;;13.07;;
14358;SDS011;7263;49.418;11.064;2023-03-03T03:14:16;14.63;;;12.90;;
14358;SDS011;7263;49.418;11.064;2023-03-03T03:16:43;16.03;;;12.23;;
14358;SDS011;7263;49.418;11.064;2023-03-03T03:19:11;16.90;;;13.17;;
14358;SDS011;7263;49.418;11.064;2023-03-03T03:21:38;15.50;;;12.87;;
14358;SDS011;7263;49.418;11.064;2023-03-03T03:24:05;15.03;;;12.30;;
14358;SDS011;7263;49.418;11.064;2023-03-03T03:26:32;16.10;;;12.47;;
14358;SDS011;7263;49.418;11.064;2023-03-03T03:28:59;16.13;;;11.80;;
14358;SDS011;7263;49.418;11.064;2023-03-03T03:31:26;14.87;;;11.60;;
14358;SDS011;7263;49.418;11.064;2023-03-03T03:33:53;14.33;;;11.63;;
14358;SDS011;7263;49.418;11.064;2023-03-03T03:36:21;19.70;;;15.80;;
14358;SDS011;7263;49.418;11.064;2023-03-03T03:38:48;17.03;;;13.00;;
14358;SDS011;7263;49.418;11.064;2023-03-03T03:41:15;16.47;;;13.50;;
14358;SDS011;7263;49.418;11.064;2023-03-03T03:43:42;38.03;;;32.47;;
14358;SDS011;7263;49.418;11.064;2023-03-03T03:46:08;17.97;;;14.50;;
14358;SDS011;7263;49.418;11.064;2023-03-03T03:48:35;17.40;;;14.43;;
14358;SDS011;7263;49.418;11.064;2023-03-03T03:51:02;15.53;;;13.00;;
14358;SDS011;7263;49.418;11.064;2023-03-03T03:53:31;16.73;;;13.10;;
14358;SDS011;7263;49.418;11.064;2023-03-03T03:55:58;15.00;;;12.07;;
14358;SDS011;7263;49.418;11.064;2023-03-03T03:58:25;15.70;;;13.00;;
14358;SDS011;7263;49.418;11.064;2023-03-03T04:00:52;15.53;;;12.97;;
14358;SDS011;7263;49.418;11.064;2023-03-03T04:03:18;15.97;;;13.17;;
14358;SDS011;7263;49.418;11.064;2023-03-03T04:05:45;15.87;;;12.67;;
14358;SDS011;7263;49.418;11.064;2023-03-03T04:08:12;16.93;;;13.23;;
14358;SDS011;7263;49.418;11.064;2023-03-03T04:10:41;16.60;;;13.30;;
14358;SDS011;7263;49.418;11.064;2023-03-03T04:13:07;15.90;;;12.83;;
14358;SDS011;7263;49.418;11.064;2023-03-03T04:15:34;15.50;;;12.63;;
14358;SDS011;7263;49.418;11.064;2023-03-03T04:18:01;18.13;;;14.13;;
14358;SDS011;7263;49.418;11.064;2023-03-03T04:20:28;20.87;;;16.33;;
14358;SDS011;7263;49.418;11.064;2023-03-03T04:22:55;19.23;;;16.00;;
14358;SDS011;7263;49.418;11.064;2023-03-03T04:25:22;19.13;;;16.60;;
14358;SDS011;7263;49.418;11.064;2023-03-03T04:27:51;15.70;;;13.63;;
14358;SDS011;7263;49.418;11.064;2023-03-03T04:30:18;20.37;;;17.33;;
14358;SDS011;7263;49.418;11.064;2023-03-03T04:32:45;26.83;;;20.73;;
14358;SDS011;7263;49.418;11.064;2023-03-03T04:35:13;16.60;;;12.53;;
14358;SDS011;7263;49.418;11.064;2023-03-03T04:37:40;20.20;;;16.10;;
14358;SDS011;7263;49.418;11.064;2023-03-03T04:40:07;22.37;;;18.53;;
14358;SDS011;7263;49.418;11.064;2023-03-03T04:42:34;24.83;;;21.10;;
14358;SDS011;7263;49.418;11.064;2023-03-03T04:45:03;26.13;;;20.07;;
14358;SDS011;7263;49.418;11.064;2023-03-03T04:47:31;17.17;;;13.93;;
14358;SDS011;7263;49.418;11.064;2023-03-03T04:49:58;23.33;;;18.13;;
14358;SDS011;7263;49.418;11.064;2023-03-03T04:52:25;21.67;;;17.37;;
14358;SDS011;7263;49.418;11.064;2023-03-03T04:54:52;16.57;;;13.70;;
14358;SDS011;7263;49.418;11.064;2023-03-03T04:57:19;20.80;;;15.07;;
14358;SDS011;7263;49.418;11.064;2023-03-03T04:59:46;19.47;;;17.00;;
14358;SDS011;7263;49.418;11.064;2023-03-03T05:02:15;19.77;;;16.43;;
14358;SDS011;7263;49.418;11.064;2023-03-03T05:04:42;17.23;;;15.13;;
14358;SDS011;7263;49.418;11.064;2023-03-03T05:07:09;16.27;;;12.87;;
14358;SDS011;7263;49.418;11.064;2023-03-03T05:09:36;18.63;;;14.30;;
14358;SDS011;7263;49.418;11.064;2023-03-03T05:12:04;17.67;;;13.87;;
14358;SDS011;7263;49.418;11.064;2023-03-03T05:14:31;17.33;;;13.90;;
14358;SDS011;7263;49.418;11.064;2023-03-03T05:16:58;18.93;;;14.90;;
14358;SDS011;7263;49.418;11.064;2023-03-03T05:19:27;17.40;;;13.97;;
14358;SDS011;7263;49.418;11.064;2023-03-03T05:21:54;16.63;;;13.63;;
14358;SDS011;7263;49.418;11.064;2023-03-03T05:24:24;17.37;;;13.80;;
14358;SDS011;7263;49.418;11.064;2023-03-03T05:26:52;17.90;;;13.73;;
14358;SDS011;7263;49.418;11.064;2023-03-03T05:29:19;15.73;;;13.83;;
14358;SDS011;7263;49.418;11.064;2023-03-03T05:31:46;19.27;;;14.87;;
14358;SDS011;7263;49.418;11.064;2023-03-03T05:34:13;16.63;;;13.73;;
14358;SDS011;7263;49.418;11.064;2023-03-03T05:36:42;17.40;;;13.93;;
14358;SDS011;7263;49.418;11.064;2023-03-03T05:39:09;16.67;;;13.03;;
14358;SDS011;7263;49.418;11.064;2023-03-03T05:41:36;18.07;;;14.63;;
14358;SDS011;7263;49.418;11.064;2023-03-03T05:44:03;17.90;;;14.53;;
14358;SDS011;7263;49.418;11.064;2023-03-03T05:46:30;15.60;;;13.93;;
14358;SDS011;7263;49.418;11.064;2023-03-03T05:48:57;20.00;;;14.10;;
14358;SDS011;7263;49.418;11.064;2023-03-03T05:51:24;18.87;;;15.67;;
14358;SDS011;7263;49.418;11.064;2023-03-03T05:53:52;19.77;;;14.47;;
14358;SDS011;7263;49.418;11.064;2023-03-03T05:56:18;21.03;;;15.00;;
14358;SDS011;7263;49.418;11.064;2023-03-03T05:58:45;16.83;;;14.40;;
14358;SDS011;7263;49.418;11.064;2023-03-03T06:01:12;17.23;;;14.13;;
14358;SDS011;7263;49.418;11.064;2023-03-03T06:03:39;19.27;;;14.87;;
14358;SDS011;7263;49.418;11.064;2023-03-03T06:06:06;18.60;;;15.73;;
14358;SDS011;7263;49.418;11.064;2023-03-03T06:08:33;18.63;;;14.77;;
14358;SDS011;7263;49.418;11.064;2023-03-03T06:11:01;23.90;;;16.13;;
14358;SDS011;7263;49.418;11.064;2023-03-03T06:13:28;19.83;;;16.00;;
14358;SDS011;7263;49.418;11.064;2023-03-03T06:15:55;19.93;;;16.13;;
14358;SDS011;7263;49.418;11.064;2023-03-03T06:18:22;21.40;;;16.00;;
14358;SDS011;7263;49.418;11.064;2023-03-03T06:20:50;21.83;;;17.13;;
14358;SDS011;7263;49.418;11.064;2023-03-03T06:23:17;22.23;;;16.20;;
14358;SDS011;7263;49.418;11.064;2023-03-03T06:25:44;21.57;;;16.77;;
14358;SDS011;7263;49.418;11.064;2023-03-03T06:28:13;20.80;;;16.90;;
14358;SDS011;7263;49.418;11.064;2023-03-03T06:30:39;21.57;;;16.93;;
14358;SDS011;7263;49.418;11.064;2023-03-03T06:33:06;22.10;;;16.07;;
14358;SDS011;7263;49.418;11.064;2023-03-03T06:35:33;20.80;;;16.77;;
14358;SDS011;7263;49.418;11.064;2023-03-03T06:38:00;20.30;;;16.00;;
14358;SDS011;7263;49.418;11.064;2023-03-03T06:40:27;22.10;;;16.47;;
14358;SDS011;7263;49.418;11.064;2023-03-03T06:42:53;22.37;;;16.30;;
14358;SDS011;7263;49.418;11.064;2023-03-03T06:45:22;21.93;;;16.80;;
14358;SDS011;7263;49.418;11.064;2023-03-03T06:47:48;22.73;;;18.03;;
14358;SDS011;7263;49.418;11.064;2023-03-03T06:50:15;24.40;;;18.17;;
14358;SDS011;7263;49.418;11.064;2023-03-03T06:52:45;22.43;;;18.40;;
14358;SDS011;7263;49.418;11.064;2023-03-03T06:55:14;24.30;;;17.93;;
14358;SDS011;7263;49.418;11.064;2023-03-03T06:57:46;24.17;;;18.13;;
14358;SDS011;7263;49.418;11.064;2023-03-03T07:00:14;20.43;;;16.77;;
14358;SDS011;7263;49.418;11.064;2023-03-03T07:02:45;21.50;;;17.20;;
14358;SDS011;7263;49.418;11.064;2023-03-03T07:05:13;21.53;;;17.67;;
14358;SDS011;7263;49.418;11.064;2023-03-03T07:07:42;22.87;;;17.07;;
14358;SDS011;7263;49.418;11.064;2023-03-03T07:13:07;21.07;;;15.93;;
14358;SDS011;7263;49.418;11.064;2023-03-03T07:15:43;19.60;;;16.23;;
14358;SDS011;7263;49.418;11.064;2023-03-03T07:18:19;21.33;;;16.17;;
14358;SDS011;7263;49.418;11.064;2023-03-03T07:20:50;20.50;;;15.97;;
14358;SDS011;7263;49.418;11.064;2023-03-03T07:23:18;21.13;;;16.10;;
14358;SDS011;7263;49.418;11.064;2023-03-03T07:25:48;22.37;;;15.77;;
14358;SDS011;7263;49.418;11.064;2023-03-03T07:28:19;20.77;;;15.87;;
14358;SDS011;7263;49.418;11.064;2023-03-03T07:30:49;20.07;;;16.10;;
14358;SDS011;7263;49.418;11.064;2023-03-03T07:33:21;22.93;;;17.10;;
14358;SDS011;7263;49.418;11.064;2023-03-03T07:35:51;19.57;;;15.80;;
14358;SDS011;7263;49.418;11.064;2023-03-03T07:38:22;21.80;;;15.97;;
14358;SDS011;7263;49.418;11.064;2023-03-03T07:40:54;21.07;;;16.47;;
14358;SDS011;7263;49.418;11.064;2023-03-03T07:43:30;22.70;;;17.50;;
14358;SDS011;7263;49.418;11.064;2023-03-03T07:46:01;23.23;;;17.03;;
14358;SDS011;7263;49.418;11.064;2023-03-03T07:48:43;32.53;;;24.47;;
14358;SDS011;7263;49.418;11.064;2023-03-03T07:51:13;24.53;;;19.57;;
14358;SDS011;7263;49.418;11.064;2023-03-03T07:53:46;53.80;;;35.03;;
14358;SDS011;7263;49.418;11.064;2023-03-03T07:56:14;23.50;;;18.43;;
14358;SDS011;7263;49.418;11.064;2023-03-03T07:58:46;25.40;;;19.67;;
14358;SDS011;7263;49.418;11.064;2023-03-03T08:04:09;21.83;;;16.73;;
14358;SDS011;7263;49.418;11.064;2023-03-03T08:06:44;22.57;;;15.23;;
14358;SDS011;7263;49.418;11.064;2023-03-03T08:09:35;22.10;;;16.63;;
14358;SDS011;7263;49.418;11.064;2023-03-03T08:15:18;21.83;;;16.50;;
14358;SDS011;7263;49.418;11.064;2023-03-03T08:17:47;21.33;;;15.70;;
14358;SDS011;7263;49.418;11.064;2023-03-03T08:23:14;22.80;;;16.43;;
14358;SDS011;7263;49.418;11.064;2023-03-03T08:25:42;19.83;;;15.87;;
14358;SDS011;7263;49.418;11.064;2023-03-03T08:28:10;21.77;;;15.80;;
14358;SDS011;7263;49.418;11.064;2023-03-03T08:30:38;21.57;;;16.67;;
14358;SDS011;7263;49.418;11.064;2023-03-03T08:33:05;23.17;;;16.80;;
14358;SDS011;7263;49.418;11.064;2023-03-03T08:35:32;24.40;;;16.40;;
14358;SDS011;7263;49.418;11.064;2023-03-03T08:38:00;21.80;;;16.27;;
14358;SDS011;7263;49.418;11.064;2023-03-03T08:40:27;23.27;;;17.70;;
14358;SDS011;7263;49.418;11.064;2023-03-03T08:42:54;22.13;;;16.03;;
14358;SDS011;7263;49.418;11.064;2023-03-03T08:45:22;24.00;;;15.67;;
14358;SDS011;7263;49.418;11.064;2023-03-03T08:47:49;19.73;;;15.87;;
14358;SDS011;7263;49.418;11.064;2023-03-03T08:50:16;23.03;;;16.03;;
14358;SDS011;7263;49.418;11.064;2023-03-03T08:52:43;22.57;;;16.03;;
14358;SDS011;7263;49.418;11.064;2023-03-03T08:55:11;25.17;;;17.00;;
14358;SDS011;7263;49.418;11.064;2023-03-03T08:57:38;20.70;;;15.73;;
14358;SDS011;7263;49.418;11.064;2023-03-03T09:00:06;21.53;;;16.80;;
14358;SDS011;7263;49.418;11.064;2023-03-03T09:02:36;20.70;;;16.23;;
14358;SDS011;7263;49.418;11.064;2023-03-03T09:05:03;23.70;;;16.47;;
14358;SDS011;7263;49.418;11.064;2023-03-03T09:07:30;21.13;;;16.60;;
14358;SDS011;7263;49.418;11.064;2023-03-03T09:09:57;21.60;;;15.97;;
14358;SDS011;7263;49.418;11.064;2023-03-03T09:12:27;24.27;;;16.33;;
14358;SDS011;7263;49.418;11.064;2023-03-03T09:14:57;23.77;;;16.70;;
14358;SDS011;7263;49.418;11.064;2023-03-03T09:17:28;21.93;;;16.70;;
14358;SDS011;7263;49.418;11.064;2023-03-03T09:19:58;23.37;;;16.30;;
14358;SDS011;7263;49.418;11.064;2023-03-03T09:22:28;22.43;;;16.83;;
14358;SDS011;7263;49.418;11.064;2023-03-03T09:25:00;21.87;;;16.13;;
14358;SDS011;7263;49.418;11.064;2023-03-03T09:27:29;21.83;;;16.53;;
14358;SDS011;7263;49.418;11.064;2023-03-03T09:30:00;20.57;;;15.83;;
14358;SDS011;7263;49.418;11.064;2023-03-03T09:32:33;19.10;;;15.67;;
14358;SDS011;7263;49.418;11.064;2023-03-03T09:35:02;19.93;;;14.97;;
14358;SDS011;7263;49.418;11.064;2023-03-03T09:38:01;23.17;;;16.27;;
14358;SDS011;7263;49.418;11.064;2023-03-03T09:40:52;21.47;;;16.30;;
14358;SDS011;7263;49.418;11.064;2023-03-03T09:43:35;21.30;;;16.10;;
14358;SDS011;7263;49.418;11.064;2023-03-03T09:46:08;22.37;;;16.80;;
14358;SDS011;7263;49.418;11.064;2023-03-03T09:48:48;22.27;;;16.60;;
14358;SDS011;7263;49.418;11.064;2023-03-03T09:51:30;21.07;;;16.03;;
14358;SDS011;7263;49.418;11.064;2023-03-03T09:54:11;20.90;;;16.23;;
14358;SDS011;7263;49.418;11.064;2023-03-03T09:56:45;22.33;;;16.77;;
14358;SDS011;7263;49.418;11.064;2023-03-03T09:59:23;24.20;;;16.13;;
14358;SDS011;7263;49.418;11.064;2023-03-03T10:01:59;22.47;;;16.37;;
14358;SDS011;7263;49.418;11.064;2023-03-03T10:04:42;21.93;;;16.00;;
14358;SDS011;7263;49.418;11.064;2023-03-03T10:07:25;23.93;;;16.53;;
14358;SDS011;7263;49.418;11.064;2023-03-03T10:10:05;19.47;;;15.10;;
14358;SDS011;7263;49.418;11.064;2023-03-03T10:12:45;20.77;;;15.93;;
14358;SDS011;7263;49.418;11.064;2023-03-03T10:15:22;22.33;;;16.53;;
14358;SDS011;7263;49.418;11.064;2023-03-03T10:18:11;23.67;;;16.20;;
14358;SDS011;7263;49.418;11.064;2023-03-03T10:20:53;19.33;;;15.90;;
14358;SDS011;7263;49.418;11.064;2023-03-03T10:23:40;21.33;;;16.60;;
14358;SDS011;7263;49.418;11.064;2023-03-03T10:26:20;20.73;;;15.77;;
14358;SDS011;7263;49.418;11.064;2023-03-03T10:29:05;20.17;;;16.17;;
14358;SDS011;7263;49.418;11.064;2023-03-03T10:31:45;21.57;;;16.17;;
14358;SDS011;7263;49.418;11.064;2023-03-03T10:34:22;21.57;;;16.93;;
14358;SDS011;7263;49.418;11.064;2023-03-03T10:37:02;20.60;;;16.53;;
14358;SDS011;7263;49.418;11.064;2023-03-03T10:39:39;19.93;;;15.63;;
14358;SDS011;7263;49.418;11.064;2023-03-03T10:42:19;21.87;;;16.83;;
14358;SDS011;7263;49.418;11.064;2023-03-03T10:44:56;21.47;;;15.87;;
14358;SDS011;7263;49.418;11.064;2023-03-03T10:47:44;20.90;;;15.87;;
14358;SDS011;7263;49.418;11.064;2023-03-03T10:50:23;18.23;;;15.33;;
14358;SDS011;7263;49.418;11.064;2023-03-03T10:53:00;20.83;;;15.43;;
14358;SDS011;7263;49.418;11.064;2023-03-03T10:55:40;19.97;;;15.33;;
14358;SDS011;7263;49.418;11.064;2023-03-03T11:01:21;20.60;;;14.83;;
14358;SDS011;7263;49.418;11.064;2023-03-03T11:04:02;20.70;;;15.67;;
14358;SDS011;7263;49.418;11.064;2023-03-03T11:06:46;20.00;;;15.80;;
14358;SDS011;7263;49.418;11.064;2023-03-03T11:09:32;21.07;;;15.77;;
14358;SDS011;7263;49.418;11.064;2023-03-03T11:12:11;20.43;;;15.10;;
14358;SDS011;7263;49.418;11.064;2023-03-03T11:14:50;16.90;;;14.73;;
14358;SDS011;7263;49.418;11.064;2023-03-03T11:17:29;21.10;;;14.93;;
14358;SDS011;7263;49.418;11.064;2023-03-03T11:20:23;19.37;;;15.27;;
14358;SDS011;7263;49.418;11.064;2023-03-03T11:23:02;20.60;;;14.97;;
14358;SDS011;7263;49.418;11.064;2023-03-03T11:25:41;18.57;;;15.03;;
14358;SDS011;7263;49.418;11.064;2023-03-03T11:28:16;17.87;;;14.63;;
14358;SDS011;7263;49.418;11.064;2023-03-03T11:30:58;19.07;;;15.07;;
14358;SDS011;7263;49.418;11.064;2023-03-03T11:33:33;18.53;;;15.37;;
14358;SDS011;7263;49.418;11.064;2023-03-03T11:36:10;18.07;;;14.97;;
14358;SDS011;7263;49.418;11.064;2023-03-03T11:38:43;19.73;;;15.40;;
14358;SDS011;7263;49.418;11.064;2023-03-03T11:41:16;16.83;;;13.47;;
14358;SDS011;7263;49.418;11.064;2023-03-03T11:43:56;18.67;;;14.63;;
14358;SDS011;7263;49.418;11.064;2023-03-03T11:46:31;19.17;;;14.83;;
14358;SDS011;7263;49.418;11.064;2023-03-03T11:49:04;17.00;;;14.20;;
14358;SDS011;7263;49.418;11.064;2023-03-03T11:51:43;20.57;;;14.00;;
14358;SDS011;7263;49.418;11.064;2023-03-03T11:54:19;17.00;;;13.40;;
14358;SDS011;7263;49.418;11.064;2023-03-03T11:56:49;16.50;;;13.73;;
14358;SDS011;7263;49.418;11.064;2023-03-03T11:59:31;16.87;;;13.43;;
14358;SDS011;7263;49.418;11.064;2023-03-03T12:02:12;16.93;;;13.63;;
14358;SDS011;7263;49.418;11.064;2023-03-03T12:04:47;17.50;;;13.90;;
14358;SDS011;7263;49.418;11.064;2023-03-03T12:07:21;15.73;;;13.63;;
14358;SDS011;7263;49.418;11.064;2023-03-03T12:09:58;16.73;;;13.00;;
14358;SDS011;7263;49.418;11.064;2023-03-03T12:12:40;15.10;;;12.23;;
14358;SDS011;7263;49.418;11.064;2023-03-03T12:15:16;15.47;;;12.70;;
14358;SDS011;7263;49.418;11.064;2023-03-03T12:20:44;14.03;;;11.57;;
14358;SDS011;7263;49.418;11.064;2023-03-03T12:23:33;14.90;;;12.20;;
14358;SDS011;7263;49.418;11.064;2023-03-03T12:26:10;14.50;;;11.80;;
14358;SDS011;7263;49.418;11.064;2023-03-03T12:28:41;14.90;;;12.30;;
14358;SDS011;7263;49.418;11.064;2023-03-03T12:31:17;16.37;;;12.50;;
14358;SDS011;7263;49.418;11.064;2023-03-03T12:33:56;17.07;;;13.90;;
14358;SDS011;7263;49.418;11.064;2023-03-03T12:36:44;14.83;;;12.33;;
14358;SDS011;7263;49.418;11.064;2023-03-03T12:39:23;15.50;;;12.07;;
14358;SDS011;7263;49.418;11.064;2023-03-03T12:42:03;14.70;;;12.43;;
14358;SDS011;7263;49.418;11.064;2023-03-03T12:44:37;13.53;;;11.87;;
14358;SDS011;7263;49.418;11.064;2023-03-03T12:47:11;15.30;;;12.53;;
14358;SDS011;7263;49.418;11.064;2023-03-03T12:49:44;14.00;;;11.23;;
14358;SDS011;7263;49.418;11.064;2023-03-03T12:52:22;15.63;;;12.23;;
14358;SDS011;7263;49.418;11.064;2023-03-03T12:54:57;14.97;;;11.63;;
14358;SDS011;7263;49.418;11.064;2023-03-03T12:57:32;14.23;;;11.70;;
14358;SDS011;7263;49.418;11.064;2023-03-03T13:00:12;15.57;;;12.60;;
14358;SDS011;7263;49.418;11.064;2023-03-03T13:02:55;16.57;;;11.43;;
14358;SDS011;7263;49.418;11.064;2023-03-03T13:05:27;13.43;;;11.10;;
14358;SDS011;7263;49.418;11.064;2023-03-03T13:08:04;14.30;;;11.37;;
14358;SDS011;7263;49.418;11.064;2023-03-03T13:10:57;14.70;;;11.50;;
14358;SDS011;7263;49.418;11.064;2023-03-03T13:13:33;17.57;;;12.20;;
14358;SDS011;7263;49.418;11.064;2023-03-03T13:16:08;14.87;;;12.40;;
14358;SDS011;7263;49.418;11.064;2023-03-03T13:18:41;15.50;;;12.73;;
14358;SDS011;7263;49.418;11.064;2023-03-03T13:21:18;16.60;;;11.37;;
14358;SDS011;7263;49.418;11.064;2023-03-03T13:23:49;13.07;;;10.80;;
14358;SDS011;7263;49.418;11.064;2023-03-03T13:26:21;12.67;;;10.90;;
14358;SDS011;7263;49.418;11.064;2023-03-03T13:28:55;14.93;;;10.67;;
14358;SDS011;7263;49.418;11.064;2023-03-03T13:31:34;15.93;;;10.43;;
14358;SDS011;7263;49.418;11.064;2023-03-03T13:34:04;13.63;;;10.80;;
14358;SDS011;7263;49.418;11.064;2023-03-03T13:36:34;14.67;;;10.30;;
14358;SDS011;7263;49.418;11.064;2023-03-03T13:39:09;12.87;;;10.17;;
14358;SDS011;7263;49.418;11.064;2023-03-03T13:41:42;11.27;;;9.60;;
14358;SDS011;7263;49.418;11.064;2023-03-03T13:44:15;13.73;;;10.90;;
14358;SDS011;7263;49.418;11.064;2023-03-03T13:46:49;14.60;;;10.33;;
14358;SDS011;7263;49.418;11.064;2023-03-03T13:49:29;13.50;;;10.30;;
14358;SDS011;7263;49.418;11.064;2023-03-03T13:52:04;12.23;;;10.30;;
14358;SDS011;7263;49.418;11.064;2023-03-03T13:54:35;12.23;;;9.97;;
14358;SDS011;7263;49.418;11.064;2023-03-03T13:57:15;11.73;;;9.57;;
14358;SDS011;7263;49.418;11.064;2023-03-03T13:59:51;12.63;;;9.60;;
14358;SDS011;7263;49.418;11.064;2023-03-03T14:02:32;11.37;;;9.07;;
14358;SDS011;7263;49.418;11.064;2023-03-03T14:05:11;14.20;;;9.57;;
14358;SDS011;7263;49.418;11.064;2023-03-03T14:07:42;16.70;;;9.77;;
14358;SDS011;7263;49.418;11.064;2023-03-03T14:10:16;14.43;;;10.00;;
14358;SDS011;7263;49.418;11.064;2023-03-03T14:12:49;11.60;;;9.13;;
14358;SDS011;7263;49.418;11.064;2023-03-03T14:15:25;12.67;;;9.33;;
14358;SDS011;7263;49.418;11.064;2023-03-03T14:20:43;11.37;;;8.73;;
14358;SDS011;7263;49.418;11.064;2023-03-03T14:23:13;13.43;;;9.50;;
14358;SDS011;7263;49.418;11.064;2023-03-03T14:25:57;13.03;;;8.70;;
14358;SDS011;7263;49.418;11.064;2023-03-03T14:28:27;10.87;;;8.30;;
14358;SDS011;7263;49.418;11.064;2023-03-03T14:30:55;11.67;;;8.70;;
14358;SDS011;7263;49.418;11.064;2023-03-03T14:33:27;11.10;;;8.20;;
14358;SDS011;7263;49.418;11.064;2023-03-03T14:36:09;12.07;;;8.43;;
14358;SDS011;7263;49.418;11.064;2023-03-03T14:38:42;12.60;;;8.77;;
14358;SDS011;7263;49.418;11.064;2023-03-03T14:41:14;10.07;;;7.70;;
14358;SDS011;7263;49.418;11.064;2023-03-03T14:43:45;10.63;;;8.27;;
14358;SDS011;7263;49.418;11.064;2023-03-03T14:46:29;12.90;;;9.50;;
14358;SDS011;7263;49.418;11.064;2023-03-03T14:48:59;10.90;;;9.17;;
14358;SDS011;7263;49.418;11.064;2023-03-03T14:51:27;14.63;;;9.93;;
14358;SDS011;7263;49.418;11.064;2023-03-03T14:53:58;11.60;;;9.27;;
14358;SDS011;7263;49.418;11.064;2023-03-03T14:56:26;11.77;;;9.10;;
14358;SDS011;7263;49.418;11.064;2023-03-03T14:59:11;12.40;;;9.87;;
14358;SDS011;7263;49.418;11.064;2023-03-03T15:01:43;11.03;;;9.60;;
14358;SDS011;7263;49.418;11.064;2023-03-03T15:04:22;11.43;;;9.23;;
14358;SDS011;7263;49.418;11.064;2023-03-03T15:06:50;11.63;;;9.70;;
14358;SDS011;7263;49.418;11.064;2023-03-03T15:09:19;12.17;;;9.90;;
14358;SDS011;7263;49.418;11.064;2023-03-03T15:11:50;10.53;;;8.80;;